Time;durP1;ratioP1;P1;durP2;ratioP2;P2;SDS_P1;SDS_P2;PMS_P1;PMS_P2;Temp;Humidity;BMP_temperature;BMP_pressure;BME280_temperature;BME280_humidity;BME280_pressure;Samples;Min_cycle;Max_cycle;Signal;HPM_P1;HPM_P2
2022/04/24 00:01:32;;;;;;;5.17;4.50;;;10.90;12.60;;;;;;5035112;28;20287;-61
2022/04/24 00:04:00;;;;;;;6.00;4.67;;;10.80;13.60;;;;;;5035233;28;20298;-61
2022/04/24 00:06:27;;;;;;;5.80;4.43;;;10.80;14.10;;;;;;5034719;28;20215;-60
2022/04/24 00:08:55;;;;;;;5.80;4.97;;;10.70;13.90;;;;;;5035220;28;20570;-59
2022/04/24 00:11:22;;;;;;;5.40;4.77;;;10.70;14.90;;;;;;5034959;28;20678;-61
2022/04/24 00:13:49;;;;;;;5.67;4.60;;;10.60;15.20;;;;;;5034973;28;20215;-60
2022/04/24 00:16:15;;;;;;;5.53;4.73;;;10.60;15.50;;;;;;5034639;28;20210;-60
2022/04/24 00:18:42;;;;;;;5.07;4.07;;;10.50;16.00;;;;;;5034439;28;20279;-60
2022/04/24 00:21:09;;;;;;;5.70;4.77;;;10.50;16.40;;;;;;5035065;28;20279;-60
2022/04/24 00:23:36;;;;;;;6.37;4.47;;;10.50;17.20;;;;;;5034629;28;20255;-60
2022/04/24 00:26:04;;;;;;;5.10;4.30;;;10.50;17.70;;;;;;5034178;28;20674;-60
2022/04/24 00:28:31;;;;;;;6.27;5.30;;;10.40;17.70;;;;;;5034649;28;20229;-60
2022/04/24 00:30:57;;;;;;;5.83;4.43;;;10.40;18.20;;;;;;5034645;28;20207;-60
2022/04/24 00:33:24;;;;;;;6.20;5.50;;;10.30;18.30;;;;;;5034593;28;20292;-59
2022/04/24 00:35:51;;;;;;;5.80;5.03;;;10.30;19.30;;;;;;5034602;28;20212;-61
2022/04/24 00:38:18;;;;;;;6.63;4.43;;;10.30;19.30;;;;;;5034233;28;20232;-59
2022/04/24 00:40:47;;;;;;;6.10;4.97;;;10.20;20.60;;;;;;5034375;28;20208;-60
2022/04/24 00:43:15;;;;;;;6.33;5.10;;;10.20;20.70;;;;;;5034392;28;20734;-60
2022/04/24 00:45:42;;;;;;;7.40;5.07;;;10.20;20.60;;;;;;5034188;28;20211;-60
2022/04/24 00:48:08;;;;;;;6.47;5.23;;;10.20;21.30;;;;;;5034101;28;20207;-60
2022/04/24 00:50:35;;;;;;;6.17;5.17;;;10.10;22.00;;;;;;5034647;28;20207;-61
2022/04/24 00:53:02;;;;;;;5.93;5.20;;;10.10;22.30;;;;;;5034220;28;20203;-59
2022/04/24 00:55:30;;;;;;;5.87;4.77;;;10.10;21.90;;;;;;5034224;28;20210;-60
2022/04/24 00:57:56;;;;;;;6.30;4.93;;;10.10;21.70;;;;;;5033603;28;20638;-61
2022/04/24 01:00:24;;;;;;;6.60;5.20;;;10.00;23.60;;;;;;5033918;28;20226;-60
2022/04/24 01:02:52;;;;;;;6.37;4.60;;;9.90;26.00;;;;;;5034088;28;20211;-59
2022/04/24 01:05:19;;;;;;;6.10;4.53;;;9.80;26.80;;;;;;5034167;28;20301;-61
2022/04/24 01:07:45;;;;;;;7.53;5.40;;;9.80;27.90;;;;;;5033456;28;20207;-60
2022/04/24 01:10:12;;;;;;;7.23;5.27;;;9.80;28.40;;;;;;5033996;28;20230;-60
2022/04/24 01:12:39;;;;;;;6.70;5.40;;;9.80;28.10;;;;;;5034091;28;20261;-61
2022/04/24 01:15:07;;;;;;;7.67;5.57;;;9.80;27.10;;;;;;5033548;28;20210;-60
2022/04/24 01:17:35;;;;;;;7.47;5.20;;;9.80;29.10;;;;;;5033792;28;20213;-60
2022/04/24 01:20:02;;;;;;;7.20;5.23;;;9.70;29.80;;;;;;5033577;28;20584;-59
2022/04/24 01:22:30;;;;;;;7.17;5.67;;;9.70;29.70;;;;;;5033763;28;20593;-60
2022/04/24 01:24:56;;;;;;;6.27;5.00;;;9.60;30.70;;;;;;5033437;28;20210;-57
2022/04/24 01:27:23;;;;;;;9.33;5.43;;;9.60;31.50;;;;;;5033205;28;20252;-60
2022/04/24 01:29:50;;;;;;;7.13;5.57;;;9.60;49.50;;;;;;5033204;28;20230;-61
2022/04/24 01:32:17;;;;;;;6.70;5.03;;;9.50;37.10;;;;;;5034427;28;20673;-60
2022/04/24 01:34:44;;;;;;;6.20;5.23;;;9.40;37.70;;;;;;5036090;28;20234;-60
2022/04/24 01:37:11;;;;;;;7.50;5.47;;;9.30;41.30;;;;;;5037163;28;20260;-61
2022/04/24 01:39:39;;;;;;;7.07;5.57;;;9.30;42.90;;;;;;5034451;28;20606;-61
2022/04/24 01:42:06;;;;;;;7.43;6.07;;;9.20;45.40;;;;;;5033151;28;20257;-61
2022/04/24 01:44:33;;;;;;;7.00;5.40;;;9.20;46.30;;;;;;5033631;28;20260;-61
2022/04/24 01:47:00;;;;;;;8.83;5.70;;;9.20;48.90;;;;;;5033021;28;20214;-60
2022/04/24 01:49:27;;;;;;;7.53;5.67;;;9.20;49.40;;;;;;5032983;28;20252;-61
2022/04/24 01:51:53;;;;;;;7.13;6.00;;;9.20;49.30;;;;;;5033269;28;20272;-60
2022/04/24 01:54:20;;;;;;;7.47;5.43;;;9.10;51.60;;;;;;5032942;28;20226;-61
2022/04/24 01:56:48;;;;;;;6.83;5.20;;;9.10;51.00;;;;;;5032816;28;20579;-61
2022/04/24 01:59:15;;;;;;;8.13;5.43;;;9.10;54.70;;;;;;5032822;28;20284;-61
2022/04/24 02:01:41;;;;;;;6.47;5.30;;;9.10;53.20;;;;;;5033088;28;20213;-61
2022/04/24 02:04:08;;;;;;;7.97;5.37;;;9.10;54.80;;;;;;5032962;28;20210;-61
2022/04/24 02:06:34;;;;;;;9.63;5.07;;;9.00;56.30;;;;;;5032612;28;20206;-61
2022/04/24 02:09:01;;;;;;;8.00;5.83;;;9.00;55.80;;;;;;5032566;28;20649;-61
2022/04/24 02:11:28;;;;;;;7.33;5.50;;;9.00;57.60;;;;;;5032505;28;20210;-61
2022/04/24 02:13:56;;;;;;;8.57;5.73;;;8.90;61.70;;;;;;5032567;28;20295;-61
2022/04/24 02:16:23;;;;;;;7.97;5.83;;;8.80;66.70;;;;;;5031623;28;20210;-61
2022/04/24 02:18:49;;;;;;;7.83;5.10;;;8.80;70.70;;;;;;5032363;28;20226;-60
2022/04/24 02:21:16;;;;;;;8.53;6.13;;;8.80;72.90;;;;;;5032548;28;20218;-61
2022/04/24 02:23:42;;;;;;;6.87;5.47;;;8.70;76.10;;;;;;5032602;28;20214;-61
2022/04/24 02:26:09;;;;;;;7.47;5.90;;;8.70;83.60;;;;;;5032123;28;20792;-61
2022/04/24 02:28:36;;;;;;;6.33;5.23;;;8.70;84.60;;;;;;5032418;28;20736;-61
2022/04/24 02:31:04;;;;;;;6.60;5.57;;;8.60;90.10;;;;;;5032375;28;20293;-61
2022/04/24 02:33:31;;;;;;;6.77;5.83;;;8.60;91.00;;;;;;5032384;28;20210;-59
2022/04/24 02:35:57;;;;;;;8.13;5.67;;;8.60;92.70;;;;;;5031931;28;20735;-61
2022/04/24 02:38:24;;;;;;;9.57;6.20;;;8.60;93.60;;;;;;5031759;28;20586;-61
2022/04/24 02:40:51;;;;;;;6.43;5.40;;;8.50;95.70;;;;;;5031809;28;20708;-61
2022/04/24 02:43:17;;;;;;;5.73;5.13;;;8.50;97.00;;;;;;5032264;28;20252;-61
2022/04/24 02:45:44;;;;;;;6.00;5.30;;;8.40;99.70;;;;;;5032406;28;20244;-61
2022/04/24 02:48:12;;;;;;;8.23;5.63;;;8.40;99.90;;;;;;5031630;28;20799;-61
2022/04/24 02:50:39;;;;;;;6.57;5.43;;;8.40;99.90;;;;;;5032061;28;20256;-61
2022/04/24 02:53:07;;;;;;;6.73;5.37;;;8.40;99.90;;;;;;5031983;28;20206;-60
2022/04/24 02:55:34;;;;;;;8.90;6.07;;;8.40;99.90;;;;;;5032139;28;20203;-61
2022/04/24 02:58:01;;;;;;;7.40;5.63;;;8.40;99.90;;;;;;5031782;28;20205;-61
2022/04/24 03:00:39;;;;;;;6.50;5.03;;;8.30;99.90;;;;;;5031855;28;20820;-61
2022/04/24 03:03:06;;;;;;;7.93;5.70;;;8.20;99.90;;;;;;5031970;28;20639;-61
2022/04/24 03:05:35;;;;;;;6.70;5.83;;;8.20;99.90;;;;;;5031582;28;20623;-61
2022/04/24 03:08:01;;;;;;;7.10;5.97;;;8.20;99.90;;;;;;5031510;28;20627;-61
2022/04/24 03:10:29;;;;;;;8.23;6.50;;;8.10;99.90;;;;;;5031908;28;20207;-59
2022/04/24 03:12:56;;;;;;;8.00;6.50;;;8.10;99.90;;;;;;5031809;28;20206;-60
2022/04/24 03:15:23;;;;;;;8.03;6.30;;;8.10;99.90;;;;;;5031577;28;20256;-61
2022/04/24 03:17:50;;;;;;;10.43;6.13;;;8.10;99.90;;;;;;5031007;28;20287;-60
2022/04/24 03:20:18;;;;;;;7.27;5.77;;;8.00;99.90;;;;;;5031175;28;20272;-61
2022/04/24 03:22:46;;;;;;;8.77;6.87;;;8.00;99.90;;;;;;5031614;28;20251;-60
2022/04/24 03:25:12;;;;;;;9.13;7.47;;;8.00;99.90;;;;;;5031518;28;20642;-60
2022/04/24 03:27:39;;;;;;;8.57;7.07;;;7.90;99.90;;;;;;5031268;28;20263;-60
2022/04/24 03:30:08;;;;;;;10.07;7.53;;;7.90;99.90;;;;;;5034304;28;20276;-61
2022/04/24 03:32:36;;;;;;;8.67;7.57;;;7.90;99.90;;;;;;5035642;28;20306;-61
2022/04/24 03:35:04;;;;;;;9.17;7.70;;;7.80;99.90;;;;;;5035676;28;20260;-61
2022/04/24 03:37:31;;;;;;;9.73;7.43;;;7.70;99.90;;;;;;5035395;28;20240;-61
2022/04/24 03:39:59;;;;;;;9.27;7.23;;;7.70;99.90;;;;;;5035308;28;20703;-60
2022/04/24 03:42:26;;;;;;;9.67;7.27;;;7.70;99.90;;;;;;5035655;28;20206;-61
2022/04/24 03:44:54;;;;;;;11.03;7.53;;;7.70;99.90;;;;;;5035256;28;20208;-61
2022/04/24 03:47:21;;;;;;;9.57;7.07;;;7.70;99.90;;;;;;5035165;28;20854;-61
2022/04/24 03:49:47;;;;;;;10.20;8.03;;;7.70;99.90;;;;;;5035493;28;20229;-61
2022/04/24 03:52:14;;;;;;;7.97;6.83;;;7.70;99.90;;;;;;5035349;28;20271;-60
2022/04/24 03:54:40;;;;;;;9.37;7.77;;;7.60;99.90;;;;;;5035424;28;20252;-61
2022/04/24 03:57:09;;;;;;;9.87;7.57;;;7.60;99.90;;;;;;5034814;28;20210;-61
2022/04/24 03:59:36;;;;;;;12.03;8.23;;;7.60;99.90;;;;;;5034755;28;20276;-61
2022/04/24 04:02:03;;;;;;;10.07;8.03;;;7.60;99.90;;;;;;5035041;28;20629;-61
2022/04/24 04:04:29;;;;;;;9.47;7.97;;;7.60;99.90;;;;;;5035286;28;20217;-61
2022/04/24 04:06:56;;;;;;;9.60;7.63;;;7.60;99.90;;;;;;5034667;28;20418;-61
2022/04/24 04:09:23;;;;;;;9.13;7.70;;;7.50;99.90;;;;;;5035150;28;20226;-61
2022/04/24 04:11:50;;;;;;;11.13;8.40;;;7.50;99.90;;;;;;5035252;28;20205;-61
2022/04/24 04:14:18;;;;;;;10.20;8.50;;;7.50;99.90;;;;;;5034759;28;20217;-61
2022/04/24 04:16:45;;;;;;;9.60;8.30;;;7.50;99.90;;;;;;5034773;28;20211;-60
2022/04/24 04:19:12;;;;;;;12.30;7.90;;;7.50;99.90;;;;;;5034739;28;20229;-61
2022/04/24 04:21:38;;;;;;;10.57;8.70;;;7.50;99.90;;;;;;5034399;28;20264;-61
2022/04/24 04:24:06;;;;;;;11.73;8.80;;;7.50;99.90;;;;;;5033581;28;20621;-61
2022/04/24 04:26:33;;;;;;;15.57;7.77;;;7.40;99.90;;;;;;5033148;28;20209;-61
2022/04/24 04:29:00;;;;;;;11.83;8.20;;;7.50;99.90;;;;;;5033586;28;20295;-61
2022/04/24 04:31:28;;;;;;;13.33;8.50;;;7.50;99.90;;;;;;5033612;28;20228;-61
2022/04/24 04:33:55;;;;;;;11.80;7.60;;;7.50;99.90;;;;;;5033644;28;20288;-61
2022/04/24 04:36:21;;;;;;;10.87;8.83;;;7.40;1.00;;;;;;5033095;28;20213;-61
2022/04/24 04:38:48;;;;;;;9.93;8.47;;;7.40;1.00;;;;;;5033386;28;20225;-61
2022/04/24 04:41:15;;;;;;;14.43;9.30;;;7.40;1.00;;;;;;5032511;28;20226;-61
2022/04/24 04:43:41;;;;;;;10.60;8.30;;;7.40;1.00;;;;;;5033627;28;20209;-61
2022/04/24 04:46:08;;;;;;;9.77;7.80;;;7.40;1.00;;;;;;5033169;28;20263;-61
2022/04/24 04:48:36;;;;;;;10.27;7.97;;;7.40;1.00;;;;;;5033310;28;20229;-61
2022/04/24 04:51:03;;;;;;;9.40;7.27;;;7.40;1.00;;;;;;5033178;28;20274;-59
2022/04/24 04:53:30;;;;;;;10.87;8.13;;;7.40;1.00;;;;;;5032943;28;20590;-61
2022/04/24 04:55:57;;;;;;;10.30;8.03;;;7.40;1.00;;;;;;5032857;28;20252;-61
2022/04/24 04:58:23;;;;;;;12.53;7.97;;;7.50;1.00;;;;;;5032922;28;20233;-61
2022/04/24 05:00:50;;;;;;;11.60;8.07;;;7.50;1.00;;;;;;5033162;28;20238;-61
2022/04/24 05:03:17;;;;;;;12.03;6.67;;;7.50;1.00;;;;;;5032960;28;20212;-61
2022/04/24 05:05:44;;;;;;;9.53;7.17;;;7.50;1.00;;;;;;5033040;28;20208;-61
2022/04/24 05:08:11;;;;;;;8.83;6.87;;;7.50;1.00;;;;;;5032457;28;20259;-61
2022/04/24 05:10:38;;;;;;;9.77;7.80;;;7.60;1.00;;;;;;5032625;28;20324;-61
2022/04/24 05:13:05;;;;;;;9.83;7.60;;;7.60;1.00;;;;;;5033080;28;20665;-61
2022/04/24 05:15:32;;;;;;;11.30;8.20;;;7.60;1.00;;;;;;5032756;28;20208;-62
2022/04/24 05:17:59;;;;;;;11.30;8.43;;;7.70;1.00;;;;;;5032334;28;20264;-61
2022/04/24 05:20:26;;;;;;;10.13;8.03;;;7.70;1.00;;;;;;5032320;28;20284;-61
2022/04/24 05:23:03;;;;;;;10.07;8.03;;;7.70;1.00;;;;;;5028194;28;115802;-61
2022/04/24 05:25:30;;;;;;;8.90;7.20;;;7.70;1.00;;;;;;5033733;28;20299;-61
2022/04/24 05:27:57;;;;;;;10.03;7.23;;;7.80;1.00;;;;;;5033367;28;20597;-61
2022/04/24 05:30:24;;;;;;;11.07;7.33;;;7.80;1.00;;;;;;5033903;28;20210;-61
2022/04/24 05:32:51;;;;;;;9.50;6.60;;;7.90;1.00;;;;;;5033520;28;20627;-61
2022/04/24 05:35:18;;;;;;;8.30;5.70;;;7.90;99.90;;;;;;5033088;28;20291;-61
2022/04/24 05:37:46;;;;;;;9.20;7.10;;;7.90;99.90;;;;;;5032879;28;20260;-61
2022/04/24 05:40:14;;;;;;;8.83;6.37;;;8.00;99.90;;;;;;5032822;28;20766;-60
2022/04/24 05:42:49;;;;;;;8.37;6.97;;;8.00;99.90;;;;;;5033456;28;20629;-60
2022/04/24 05:45:18;;;;;;;8.77;6.23;;;8.00;99.90;;;;;;5033727;28;20202;-62
2022/04/24 05:47:45;;;;;;;7.63;5.50;;;8.10;99.90;;;;;;5032846;28;20688;-61
2022/04/24 05:50:13;;;;;;;8.40;6.83;;;8.10;99.90;;;;;;5033235;28;20647;-60
2022/04/24 05:52:39;;;;;;;8.93;6.43;;;8.10;99.90;;;;;;5032874;28;20210;-60
2022/04/24 05:55:07;;;;;;;10.53;7.13;;;8.20;99.90;;;;;;5033869;28;20209;-61
2022/04/24 05:57:35;;;;;;;11.17;7.40;;;8.20;99.90;;;;;;5035196;28;20210;-61
2022/04/24 06:00:01;;;;;;;11.57;7.60;;;8.30;99.90;;;;;;5035439;28;20227;-60
2022/04/24 06:02:28;;;;;;;8.47;6.70;;;8.40;99.90;;;;;;5034754;28;20211;-61
2022/04/24 06:04:55;;;;;;;8.97;5.80;;;8.40;99.90;;;;;;5033122;28;20705;-61
2022/04/24 06:07:23;;;;;;;7.77;6.37;;;8.50;99.90;;;;;;5033069;28;20203;-60
2022/04/24 06:09:50;;;;;;;10.83;7.37;;;8.50;99.90;;;;;;5032966;28;20233;-60
2022/04/24 06:12:16;;;;;;;10.23;7.20;;;8.60;99.90;;;;;;5033034;28;20207;-61
2022/04/24 06:14:44;;;;;;;8.17;6.77;;;8.60;99.90;;;;;;5032900;28;20253;-60
2022/04/24 06:17:11;;;;;;;10.13;7.37;;;8.70;99.90;;;;;;5032208;28;20615;-60
2022/04/24 06:19:38;;;;;;;8.83;6.60;;;8.70;99.90;;;;;;5032761;28;20241;-61
2022/04/24 06:22:05;;;;;;;8.40;6.03;;;8.80;99.90;;;;;;5032310;28;20288;-61
2022/04/24 06:24:32;;;;;;;11.37;6.50;;;8.90;99.90;;;;;;5032630;28;20210;-59
2022/04/24 06:26:58;;;;;;;11.50;5.80;;;9.00;99.90;;;;;;5032095;28;20260;-61
2022/04/24 06:29:25;;;;;;;9.57;6.47;;;9.10;99.90;;;;;;5032453;28;20653;-61
2022/04/24 06:31:53;;;;;;;8.20;6.00;;;9.10;99.90;;;;;;5032300;28;20253;-61
2022/04/24 06:34:21;;;;;;;9.27;6.33;;;9.20;99.90;;;;;;5032287;28;20202;-61
2022/04/24 06:36:48;;;;;;;9.13;5.50;;;9.30;99.90;;;;;;5032062;28;20206;-61
2022/04/24 06:39:15;;;;;;;11.13;6.50;;;9.30;99.90;;;;;;5032189;28;20234;-61
2022/04/24 06:41:42;;;;;;;9.23;6.87;;;9.40;99.90;;;;;;5032191;28;20230;-61
2022/04/24 06:44:08;;;;;;;10.03;7.03;;;9.50;99.90;;;;;;5032088;28;20294;-61
2022/04/24 06:46:35;;;;;;;8.70;7.03;;;9.60;99.90;;;;;;5032036;28;20206;-61
2022/04/24 06:49:03;;;;;;;7.23;5.00;;;9.70;99.90;;;;;;5032086;28;20280;-61
2022/04/24 06:51:29;;;;;;;8.87;6.83;;;9.60;99.90;;;;;;5032271;28;20206;-62
2022/04/24 06:53:56;;;;;;;10.03;7.03;;;9.70;99.90;;;;;;5032176;28;20209;-61
2022/04/24 06:56:23;;;;;;;8.80;5.40;;;9.80;99.90;;;;;;5031659;28;20675;-61
2022/04/24 06:58:51;;;;;;;8.33;6.87;;;9.90;99.90;;;;;;5032201;28;20227;-65
2022/04/24 07:01:19;;;;;;;10.70;7.43;;;10.00;99.90;;;;;;5031870;28;20231;-60
2022/04/24 07:03:46;;;;;;;6.97;5.47;;;10.10;99.90;;;;;;5032090;28;20308;-61
2022/04/24 07:06:14;;;;;;;9.73;6.30;;;10.20;99.90;;;;;;5031500;28;20261;-60
2022/04/24 07:08:41;;;;;;;9.60;6.27;;;10.20;99.90;;;;;;5032260;28;20229;-60
2022/04/24 07:11:07;;;;;;;8.07;6.13;;;10.40;99.90;;;;;;5031803;28;20208;-61
2022/04/24 07:13:34;;;;;;;9.93;6.40;;;10.50;99.90;;;;;;5031733;28;20220;-61
2022/04/24 07:16:01;;;;;;;8.67;6.63;;;10.50;99.90;;;;;;5031881;28;20215;-61
2022/04/24 07:18:28;;;;;;;7.57;6.40;;;10.60;99.90;;;;;;5031887;28;20236;-61
2022/04/24 07:20:55;;;;;;;5.27;3.53;;;10.80;99.90;;;;;;5032104;28;20637;-62
2022/04/24 07:23:23;;;;;;;6.83;4.67;;;10.80;99.90;;;;;;5031871;28;20640;-61
2022/04/24 07:25:51;;;;;;;9.30;6.53;;;10.80;99.90;;;;;;5031349;28;20677;-61
2022/04/24 07:28:19;;;;;;;8.37;6.53;;;10.80;99.90;;;;;;5031621;28;20230;-63
2022/04/24 07:30:46;;;;;;;10.43;7.07;;;10.80;99.90;;;;;;5031774;28;20209;-61
2022/04/24 07:33:13;;;;;;;8.93;6.77;;;11.00;99.90;;;;;;5031757;28;20736;-61
2022/04/24 07:35:41;;;;;;;8.00;6.30;;;11.30;99.90;;;;;;5013473;28;20199;-61
2022/04/24 07:38:08;;;;;;;8.83;7.03;;;11.50;99.90;;;;;;5011123;28;20207;-61
2022/04/24 07:40:39;;;;;;;11.70;8.67;;;11.60;97.90;;;;;;5011165;28;20647;-61
2022/04/24 07:43:07;;;;;;;8.93;7.37;;;11.70;99.90;;;;;;5011869;28;20304;-61
2022/04/24 07:45:36;;;;;;;7.93;6.63;;;11.80;94.20;;;;;;5011483;28;20601;-61
2022/04/24 07:48:04;;;;;;;7.53;6.47;;;11.90;93.30;;;;;;5011098;28;20210;-65
2022/04/24 07:50:34;;;;;;;10.17;6.60;;;12.00;99.90;;;;;;5011109;28;20215;-61
2022/04/24 07:53:01;;;;;;;9.00;6.50;;;11.90;86.90;;;;;;5010831;28;20218;-63
2022/04/24 07:55:29;;;;;;;11.03;7.07;;;11.60;81.30;;;;;;5011602;28;20211;-61
2022/04/24 07:57:58;;;;;;;9.77;7.80;;;11.70;91.10;;;;;;5010885;28;20550;-62
2022/04/24 08:00:27;;;;;;;8.30;6.37;;;11.80;90.90;;;;;;5011317;28;20301;-63
2022/04/24 08:02:57;;;;;;;7.00;5.97;;;12.00;84.20;;;;;;5011231;28;20210;-62
2022/04/24 08:05:24;;;;;;;8.07;6.30;;;11.90;72.40;;;;;;5011139;28;20209;-61
2022/04/24 08:07:51;;;;;;;10.23;8.03;;;12.00;73.70;;;;;;5010760;28;20639;-62
2022/04/24 08:10:19;;;;;;;8.47;6.87;;;12.20;89.00;;;;;;5011226;28;20239;-62
2022/04/24 08:12:46;;;;;;;10.67;7.87;;;12.30;78.80;;;;;;5011344;28;20222;-62
2022/04/24 08:15:14;;;;;;;9.37;7.80;;;12.50;82.90;;;;;;5012153;28;20277;-62
2022/04/24 08:17:41;;;;;;;10.93;6.93;;;12.60;66.20;;;;;;5014393;28;20207;-62
2022/04/24 08:20:10;;;;;;;9.43;6.73;;;12.60;62.50;;;;;;5014361;28;20230;-62
2022/04/24 08:22:39;;;;;;;7.90;6.67;;;12.70;69.60;;;;;;5014902;28;20281;-62
2022/04/24 08:25:06;;;;;;;9.53;7.27;;;12.60;72.30;;;;;;5014864;28;20242;-61
2022/04/24 08:27:33;;;;;;;9.10;6.50;;;12.50;64.70;;;;;;5014034;28;20594;-61
2022/04/24 08:30:00;;;;;;;11.27;7.50;;;12.60;67.70;;;;;;5014495;28;20235;-60
2022/04/24 08:32:28;;;;;;;8.47;6.83;;;12.70;71.20;;;;;;5014535;28;20230;-61
2022/04/24 08:34:56;;;;;;;10.20;8.13;;;13.00;77.10;;;;;;5014687;28;20207;-61
2022/04/24 08:37:23;;;;;;;10.23;8.20;;;12.90;61.70;;;;;;5014428;28;20262;-61
2022/04/24 08:39:50;;;;;;;9.63;7.90;;;13.20;75.90;;;;;;5014295;28;20231;-61
2022/04/24 08:42:18;;;;;;;12.33;8.27;;;13.30;61.50;;;;;;5014514;28;20529;-61
2022/04/24 08:44:45;;;;;;;11.47;7.17;;;13.20;57.20;;;;;;5014150;28;20242;-61
2022/04/24 08:47:14;;;;;;;9.33;7.17;;;13.30;69.70;;;;;;5013595;28;20265;-61
2022/04/24 08:49:43;;;;;;;11.87;9.17;;;13.60;72.40;;;;;;5013898;28;20271;-68
2022/04/24 08:52:10;;;;;;;8.93;6.77;;;13.90;66.20;;;;;;5013506;28;20204;-62
2022/04/24 08:54:38;;;;;;;12.83;8.33;;;13.90;57.10;;;;;;5025752;28;20211;-64
2022/04/24 08:57:05;;;;;;;11.00;8.53;;;13.80;59.30;;;;;;5033113;28;20588;-63
2022/04/24 08:59:32;;;;;;;10.23;8.03;;;13.80;66.50;;;;;;5033430;28;20317;-63
2022/04/24 09:02:00;;;;;;;10.67;8.03;;;13.90;63.50;;;;;;5032754;28;20223;-64
2022/04/24 09:04:27;;;;;;;10.90;8.10;;;13.80;52.30;;;;;;5033837;28;20689;-65
2022/04/24 09:06:59;;;;;;;8.63;7.67;;;13.90;56.40;;;;;;5033486;28;20220;-65
2022/04/24 09:09:26;;;;;;;9.93;7.97;;;14.10;57.10;;;;;;5034507;28;20233;-64
2022/04/24 09:11:53;;;;;;;9.47;7.23;;;14.20;55.90;;;;;;5028885;28;20209;-65
2022/04/24 09:14:20;;;;;;;8.77;6.27;;;14.30;50.80;;;;;;5012385;28;20214;-65
2022/04/24 09:16:49;;;;;;;9.10;7.43;;;14.20;51.80;;;;;;5013105;28;20257;-64
2022/04/24 09:19:17;;;;;;;9.80;7.77;;;14.10;51.80;;;;;;5012738;28;20240;-63
2022/04/24 09:21:44;;;;;;;11.97;6.00;;;14.30;53.00;;;;;;5013249;28;20736;-61
2022/04/24 09:24:12;;;;;;;9.73;7.87;;;14.30;51.50;;;;;;5013336;28;20206;-61
2022/04/24 09:26:49;;;;;;;10.10;6.63;;;14.30;50.60;;;;;;5010912;28;20220;-61
2022/04/24 09:29:22;;;;;;;11.10;7.23;;;14.50;52.20;;;;;;5022725;28;20222;-63
2022/04/24 09:31:51;;;;;;;12.03;7.93;;;14.60;53.00;;;;;;5033029;28;20318;-63
2022/04/24 09:34:22;;;;;;;14.67;8.50;;;14.60;52.30;;;;;;5032595;28;20237;-63
2022/04/24 09:37:00;;;;;;;11.50;9.07;;;14.60;47.80;;;;;;5029144;28;20221;-63
2022/04/24 09:39:29;;;;;;;10.17;6.93;;;14.70;50.20;;;;;;5031573;28;20339;-63
2022/04/24 09:42:02;;;;;;;10.17;8.20;;;14.70;52.90;;;;;;5032137;28;20233;-64
2022/04/24 09:44:37;;;;;;;9.00;7.27;;;14.80;55.50;;;;;;5032491;28;20218;-63
2022/04/24 09:47:05;;;;;;;13.50;8.23;;;14.70;47.10;;;;;;5032372;28;20241;-64
2022/04/24 09:49:36;;;;;;;11.53;8.47;;;14.90;50.40;;;;;;5032470;28;20234;-65
2022/04/24 09:52:04;;;;;;;11.50;8.33;;;15.00;49.90;;;;;;5032759;28;20209;-64
2022/04/24 09:54:33;;;;;;;12.50;8.60;;;15.00;48.80;;;;;;5032102;28;20229;-65
2022/04/24 09:57:02;;;;;;;10.73;8.53;;;15.20;54.50;;;;;;5032397;28;20210;-65
2022/04/24 09:59:29;;;;;;;9.13;6.97;;;15.50;54.60;;;;;;5032178;28;20226;-65
2022/04/24 10:01:56;;;;;;;11.97;8.97;;;15.40;45.80;;;;;;5032637;28;20234;-67
2022/04/24 10:04:24;;;;;;;16.07;11.67;;;15.30;46.30;;;;;;5031629;28;20245;-65
2022/04/24 10:06:52;;;;;;;11.43;8.37;;;15.40;49.80;;;;;;5032383;28;20621;-66
2022/04/24 10:09:19;;;;;;;11.87;7.07;;;15.50;48.40;;;;;;5032303;28;20932;-64
2022/04/24 10:11:48;;;;;;;6.80;5.80;;;15.40;43.50;;;;;;5032235;28;20210;-65
2022/04/24 10:14:18;;;;;;;11.33;8.87;;;15.40;43.10;;;;;;5031633;28;20669;-62
2022/04/24 10:17:26;;;;;;;9.47;6.90;;;15.40;44.80;;;;;;5031597;28;20268;-61
2022/04/24 10:20:03;;;;;;;10.97;8.70;;;15.20;39.70;;;;;;5032579;28;20222;-61
2022/04/24 10:22:38;;;;;;;9.43;7.27;;;15.30;42.30;;;;;;5031811;28;20321;-61
2022/04/24 10:25:06;;;;;;;12.87;8.60;;;15.60;45.10;;;;;;5034606;28;20287;-62
2022/04/24 10:27:39;;;;;;;10.90;8.23;;;15.50;60.20;;;;;;5038865;28;20572;-62
2022/04/24 10:30:07;;;;;;;10.37;7.90;;;15.60;43.80;;;;;;5038469;28;20237;-62
2022/04/24 10:32:33;;;;;;;12.53;7.67;;;15.90;50.80;;;;;;5034591;28;20256;-62
2022/04/24 10:35:01;;;;;;;10.23;8.17;;;15.90;43.70;;;;;;5031326;28;20217;-62
2022/04/24 10:37:30;;;;;;;9.93;7.90;;;16.00;45.40;;;;;;5031061;28;20210;-62
2022/04/24 10:39:58;;;;;;;12.27;8.60;;;16.00;44.90;;;;;;5031448;28;20321;-62
2022/04/24 10:42:32;;;;;;;9.40;7.90;;;16.00;48.20;;;;;;5031716;28;20237;-59
2022/04/24 10:45:08;;;;;;;8.53;6.30;;;16.10;42.20;;;;;;5031522;28;20210;-62
2022/04/24 10:47:55;;;;;;;10.33;7.50;;;16.10;44.20;;;;;;5039361;28;20227;-61
2022/04/24 10:50:22;;;;;;;8.83;7.60;;;16.10;43.10;;;;;;5051652;28;20202;-61
2022/04/24 10:52:52;;;;;;;10.03;7.50;;;16.10;40.30;;;;;;5051488;28;20206;-64
2022/04/24 10:55:24;;;;;;;10.10;8.40;;;16.00;38.30;;;;;;5051284;28;20630;-65
2022/04/24 10:57:55;;;;;;;10.20;8.10;;;16.00;42.90;;;;;;5051092;28;20206;-64
2022/04/24 11:00:28;;;;;;;8.73;7.23;;;16.20;44.60;;;;;;5051472;28;20205;-64
2022/04/24 11:03:07;;;;;;;10.10;7.90;;;16.50;43.10;;;;;;5050984;28;20279;-62
2022/04/24 11:05:37;;;;;;;11.00;7.97;;;16.40;42.10;;;;;;5051249;28;20292;-64
2022/04/24 11:08:05;;;;;;;8.73;7.17;;;16.60;43.80;;;;;;5050907;28;20607;-60
2022/04/24 11:10:40;;;;;;;12.00;7.93;;;16.50;38.00;;;;;;5051487;28;20629;-59
2022/04/24 11:13:09;;;;;;;10.97;7.93;;;16.10;34.70;;;;;;5050799;28;20256;-59
2022/04/24 11:15:42;;;;;;;9.20;7.83;;;16.20;37.00;;;;;;5050681;28;20209;-61
2022/04/24 11:18:21;;;;;;;8.97;8.07;;;16.50;39.80;;;;;;5051056;28;20208;-61
2022/04/24 11:20:55;;;;;;;9.30;7.67;;;16.50;37.20;;;;;;5051212;28;20683;-60
2022/04/24 11:23:25;;;;;;;10.20;8.00;;;16.20;32.40;;;;;;5051276;28;20259;-61
2022/04/24 11:25:54;;;;;;;10.77;7.00;;;16.30;36.10;;;;;;5051292;28;20260;-61
2022/04/24 11:28:21;;;;;;;9.53;7.63;;;16.50;34.10;;;;;;5051604;28;20253;-61
2022/04/24 11:30:49;;;;;;;6.43;5.50;;;16.40;33.40;;;;;;5051461;28;20263;-61
2022/04/24 11:33:16;;;;;;;10.20;7.43;;;16.60;33.60;;;;;;5051567;28;20206;-61
2022/04/24 11:35:43;;;;;;;10.67;8.60;;;16.70;35.00;;;;;;5051260;28;20213;-61
2022/04/24 11:38:13;;;;;;;7.67;5.90;;;17.00;40.30;;;;;;5050959;28;20675;-61
2022/04/24 11:40:46;;;;;;;11.07;8.30;;;17.30;39.30;;;;;;5051115;28;20635;-61
2022/04/24 11:43:16;;;;;;;10.00;7.10;;;17.40;41.20;;;;;;5051122;28;20229;-61
2022/04/24 11:51:17;;;;;;;11.27;8.57;;;16.70;32.50;;;;;;5054549;28;20205;-61
2022/04/24 11:53:45;;;;;;;9.13;7.57;;;16.50;32.30;;;;;;5055205;28;20206;-61
2022/04/24 11:56:12;;;;;;;11.50;8.67;;;16.40;33.50;;;;;;5054840;28;20213;-61
2022/04/24 11:58:41;;;;;;;8.93;7.40;;;16.70;34.20;;;;;;5054975;28;20291;-61
2022/04/24 12:01:13;;;;;;;8.23;6.53;;;16.40;30.50;;;;;;5055222;28;20237;-61
2022/04/24 12:03:43;;;;;;;9.73;8.33;;;16.00;27.80;;;;;;5054951;28;20229;-61
2022/04/24 12:06:11;;;;;;;10.17;7.67;;;15.90;26.30;;;;;;5054637;28;20209;-61
2022/04/24 12:08:43;;;;;;;13.40;8.20;;;16.00;28.10;;;;;;5054728;28;20715;-60
2022/04/24 12:11:09;;;;;;;11.50;8.87;;;16.40;30.70;;;;;;5054793;28;20210;-60
2022/04/24 12:13:36;;;;;;;8.53;6.77;;;16.40;30.60;;;;;;5055273;28;20259;-60
2022/04/24 12:16:03;;;;;;;10.80;7.83;;;16.10;29.30;;;;;;5054441;28;20628;-61
2022/04/24 12:18:30;;;;;;;9.37;7.80;;;16.00;27.00;;;;;;5054960;28;20230;-61
2022/04/24 12:20:58;;;;;;;10.67;8.87;;;15.90;27.60;;;;;;5054583;28;20682;-61
2022/04/24 12:23:26;;;;;;;9.33;6.97;;;16.30;33.30;;;;;;5054882;28;20271;-61
2022/04/24 12:25:55;;;;;;;8.43;7.40;;;16.80;39.20;;;;;;5053976;28;20221;-61
2022/04/24 12:28:31;;;;;;;8.00;6.27;;;17.00;36.40;;;;;;5054472;28;20221;-61
2022/04/24 12:30:58;;;;;;;9.30;7.80;;;17.00;35.50;;;;;;5054465;28;20205;-61
2022/04/24 12:33:25;;;;;;;8.87;7.97;;;17.10;37.30;;;;;;5054696;28;20619;-61
2022/04/24 12:35:52;;;;;;;9.13;7.73;;;17.30;40.30;;;;;;5054211;28;20214;-61
2022/04/24 12:38:23;;;;;;;8.27;7.17;;;17.20;35.20;;;;;;5054164;28;20229;-61
2022/04/24 12:40:57;;;;;;;9.93;7.20;;;17.10;34.50;;;;;;5054323;28;20680;-61
2022/04/24 12:43:26;;;;;;;9.13;7.03;;;17.50;41.40;;;;;;5054424;28;20225;-61
2022/04/24 12:45:53;;;;;;;9.47;7.37;;;17.70;41.20;;;;;;5054273;28;20577;-61
2022/04/24 12:48:19;;;;;;;9.40;7.60;;;17.30;33.70;;;;;;5054190;28;20356;-61
2022/04/24 12:50:48;;;;;;;9.47;7.30;;;17.50;38.40;;;;;;5054281;28;20628;-61
2022/04/24 12:53:16;;;;;;;8.20;7.13;;;17.70;39.80;;;;;;5054104;28;20644;-61
2022/04/24 12:55:44;;;;;;;8.67;7.43;;;17.30;34.20;;;;;;5054121;28;20741;-61
2022/04/24 12:58:14;;;;;;;13.53;7.60;;;17.20;35.60;;;;;;5053920;28;20259;-61